Terminal Aerodrome Forecast
Issued by NWS Greer, SC

Home | Current Version | Previous Version | Text Only | Print | Product List | Glossary On
Versions: 1 2 3 4 5 6 7 8 9 10 11 12 13 14 15 16 17 18 19 20 21 22 23 24 25 26 27 28 29 30 31 32 33 34 35 36 37 38 39 40 41 42
000
FTUS42 KGSP 230832 AAA
TAFCLT
TAF AMD
KCLT 230832Z 2309/2406 34003KT P6SM BKN130
     FM231000 VRB02KT 4SM BR BKN030
     FM231200 04002KT 3/4SM BR BKN020
     FM231300 05003KT P6SM BKN025
     FM231500 10004KT P6SM SCT060=

USA.gov is the U.S. government's official web portal to all federal, state and local government web resources and services.